sensor_id;sensor_type;location;lat;lon;timestamp;P1;durP1;ratioP1;P2;durP2;ratioP2
49366;SDS011;35245;52.026;8.540;2024-01-15T00:01:20;44.53;;;23.92;;
49366;SDS011;35245;52.026;8.540;2024-01-15T00:03:47;44.20;;;24.10;;
49366;SDS011;35245;52.026;8.540;2024-01-15T00:06:15;43.80;;;22.95;;
49366;SDS011;35245;52.026;8.540;2024-01-15T00:08:42;49.05;;;25.13;;
49366;SDS011;35245;52.026;8.540;2024-01-15T00:11:10;51.30;;;26.00;;
49366;SDS011;35245;52.026;8.540;2024-01-15T00:13:37;45.67;;;25.35;;
49366;SDS011;35245;52.026;8.540;2024-01-15T00:16:04;45.03;;;24.63;;
49366;SDS011;35245;52.026;8.540;2024-01-15T00:18:32;52.50;;;24.95;;
49366;SDS011;35245;52.026;8.540;2024-01-15T00:20:59;51.83;;;26.52;;
49366;SDS011;35245;52.026;8.540;2024-01-15T00:23:26;50.72;;;25.90;;
49366;SDS011;35245;52.026;8.540;2024-01-15T00:25:53;47.67;;;24.20;;
49366;SDS011;35245;52.026;8.540;2024-01-15T00:28:21;49.78;;;24.58;;
49366;SDS011;35245;52.026;8.540;2024-01-15T00:30:48;49.40;;;25.33;;
49366;SDS011;35245;52.026;8.540;2024-01-15T00:33:15;37.78;;;20.80;;
49366;SDS011;35245;52.026;8.540;2024-01-15T00:35:42;37.92;;;20.63;;
49366;SDS011;35245;52.026;8.540;2024-01-15T00:38:10;37.72;;;18.75;;
49366;SDS011;35245;52.026;8.540;2024-01-15T00:40:37;39.38;;;18.58;;
49366;SDS011;35245;52.026;8.540;2024-01-15T00:43:04;35.10;;;18.23;;
49366;SDS011;35245;52.026;8.540;2024-01-15T00:45:34;38.20;;;17.63;;
49366;SDS011;35245;52.026;8.540;2024-01-15T00:48:01;37.10;;;18.20;;
49366;SDS011;35245;52.026;8.540;2024-01-15T00:50:28;36.15;;;18.63;;
49366;SDS011;35245;52.026;8.540;2024-01-15T00:52:55;36.35;;;18.00;;
49366;SDS011;35245;52.026;8.540;2024-01-15T00:55:22;37.38;;;17.05;;
49366;SDS011;35245;52.026;8.540;2024-01-15T00:57:50;43.38;;;19.15;;
49366;SDS011;35245;52.026;8.540;2024-01-15T01:00:17;38.85;;;18.27;;
49366;SDS011;35245;52.026;8.540;2024-01-15T01:02:45;36.97;;;17.75;;
49366;SDS011;35245;52.026;8.540;2024-01-15T01:05:12;37.72;;;18.90;;
49366;SDS011;35245;52.026;8.540;2024-01-15T01:07:40;37.92;;;18.55;;
49366;SDS011;35245;52.026;8.540;2024-01-15T01:10:07;36.05;;;17.05;;
49366;SDS011;35245;52.026;8.540;2024-01-15T01:12:35;38.97;;;17.50;;
49366;SDS011;35245;52.026;8.540;2024-01-15T01:15:03;34.78;;;17.30;;
49366;SDS011;35245;52.026;8.540;2024-01-15T01:17:32;34.08;;;16.58;;
49366;SDS011;35245;52.026;8.540;2024-01-15T01:20:01;29.42;;;15.25;;
49366;SDS011;35245;52.026;8.540;2024-01-15T01:22:32;30.45;;;15.52;;
49366;SDS011;35245;52.026;8.540;2024-01-15T01:24:59;33.20;;;14.05;;
49366;SDS011;35245;52.026;8.540;2024-01-15T01:27:26;25.67;;;13.18;;
49366;SDS011;35245;52.026;8.540;2024-01-15T01:29:54;26.58;;;13.95;;
49366;SDS011;35245;52.026;8.540;2024-01-15T01:32:21;29.33;;;14.05;;
49366;SDS011;35245;52.026;8.540;2024-01-15T01:34:48;27.33;;;13.23;;
49366;SDS011;35245;52.026;8.540;2024-01-15T01:37:16;25.40;;;13.82;;
49366;SDS011;35245;52.026;8.540;2024-01-15T01:39:45;31.02;;;12.90;;
49366;SDS011;35245;52.026;8.540;2024-01-15T01:42:12;23.05;;;12.65;;
49366;SDS011;35245;52.026;8.540;2024-01-15T01:44:39;27.90;;;14.23;;
49366;SDS011;35245;52.026;8.540;2024-01-15T01:47:06;31.73;;;15.32;;
49366;SDS011;35245;52.026;8.540;2024-01-15T01:49:34;25.80;;;12.30;;
49366;SDS011;35245;52.026;8.540;2024-01-15T01:52:03;26.40;;;13.65;;
49366;SDS011;35245;52.026;8.540;2024-01-15T01:54:34;29.70;;;13.35;;
49366;SDS011;35245;52.026;8.540;2024-01-15T01:57:03;30.13;;;14.00;;
49366;SDS011;35245;52.026;8.540;2024-01-15T01:59:31;29.13;;;12.75;;
49366;SDS011;35245;52.026;8.540;2024-01-15T02:02:00;23.80;;;11.85;;
49366;SDS011;35245;52.026;8.540;2024-01-15T02:04:29;24.85;;;11.45;;
49366;SDS011;35245;52.026;8.540;2024-01-15T02:06:58;23.50;;;11.73;;
49366;SDS011;35245;52.026;8.540;2024-01-15T02:09:26;31.33;;;13.43;;
49366;SDS011;35245;52.026;8.540;2024-01-15T02:11:54;25.63;;;11.88;;
49366;SDS011;35245;52.026;8.540;2024-01-15T02:14:22;25.30;;;10.77;;
49366;SDS011;35245;52.026;8.540;2024-01-15T02:16:49;19.58;;;10.18;;
49366;SDS011;35245;52.026;8.540;2024-01-15T02:19:16;21.48;;;10.35;;
49366;SDS011;35245;52.026;8.540;2024-01-15T02:21:44;20.60;;;10.40;;
49366;SDS011;35245;52.026;8.540;2024-01-15T02:24:13;19.35;;;10.80;;
49366;SDS011;35245;52.026;8.540;2024-01-15T02:26:40;28.70;;;11.07;;
49366;SDS011;35245;52.026;8.540;2024-01-15T02:29:08;27.35;;;11.13;;
49366;SDS011;35245;52.026;8.540;2024-01-15T02:31:36;22.20;;;10.45;;
49366;SDS011;35245;52.026;8.540;2024-01-15T02:34:04;25.80;;;11.10;;
49366;SDS011;35245;52.026;8.540;2024-01-15T02:36:31;27.40;;;11.50;;
49366;SDS011;35245;52.026;8.540;2024-01-15T02:38:58;23.15;;;11.40;;
49366;SDS011;35245;52.026;8.540;2024-01-15T02:41:27;32.78;;;13.13;;
49366;SDS011;35245;52.026;8.540;2024-01-15T02:43:54;27.65;;;12.68;;
49366;SDS011;35245;52.026;8.540;2024-01-15T02:46:21;31.40;;;13.07;;
49366;SDS011;35245;52.026;8.540;2024-01-15T02:48:48;21.70;;;11.27;;
49366;SDS011;35245;52.026;8.540;2024-01-15T02:51:15;25.90;;;11.60;;
49366;SDS011;35245;52.026;8.540;2024-01-15T02:53:43;26.73;;;12.40;;
49366;SDS011;35245;52.026;8.540;2024-01-15T02:56:11;25.58;;;12.18;;
49366;SDS011;35245;52.026;8.540;2024-01-15T02:58:39;27.95;;;11.75;;
49366;SDS011;35245;52.026;8.540;2024-01-15T03:01:07;22.85;;;11.65;;
49366;SDS011;35245;52.026;8.540;2024-01-15T03:03:34;28.75;;;12.70;;
49366;SDS011;35245;52.026;8.540;2024-01-15T03:06:01;28.42;;;12.10;;
49366;SDS011;35245;52.026;8.540;2024-01-15T03:08:29;36.10;;;12.98;;
49366;SDS011;35245;52.026;8.540;2024-01-15T03:10:56;26.15;;;11.57;;
49366;SDS011;35245;52.026;8.540;2024-01-15T03:13:24;25.55;;;12.45;;
49366;SDS011;35245;52.026;8.540;2024-01-15T03:15:52;23.40;;;12.45;;
49366;SDS011;35245;52.026;8.540;2024-01-15T03:18:19;28.30;;;12.77;;
49366;SDS011;35245;52.026;8.540;2024-01-15T03:20:46;25.48;;;12.30;;
49366;SDS011;35245;52.026;8.540;2024-01-15T03:23:13;28.05;;;12.40;;
49366;SDS011;35245;52.026;8.540;2024-01-15T03:25:40;29.65;;;13.80;;
49366;SDS011;35245;52.026;8.540;2024-01-15T03:28:08;28.88;;;12.80;;
49366;SDS011;35245;52.026;8.540;2024-01-15T03:30:35;34.88;;;13.40;;
49366;SDS011;35245;52.026;8.540;2024-01-15T03:33:03;32.15;;;13.85;;
49366;SDS011;35245;52.026;8.540;2024-01-15T03:35:30;29.33;;;13.90;;
49366;SDS011;35245;52.026;8.540;2024-01-15T03:37:58;32.38;;;13.82;;
49366;SDS011;35245;52.026;8.540;2024-01-15T03:40:25;31.75;;;14.10;;
49366;SDS011;35245;52.026;8.540;2024-01-15T03:42:52;31.70;;;14.43;;
49366;SDS011;35245;52.026;8.540;2024-01-15T03:45:20;37.10;;;15.15;;
49366;SDS011;35245;52.026;8.540;2024-01-15T03:47:47;34.47;;;14.32;;
49366;SDS011;35245;52.026;8.540;2024-01-15T03:50:15;33.33;;;15.45;;
49366;SDS011;35245;52.026;8.540;2024-01-15T03:52:42;31.17;;;14.32;;
49366;SDS011;35245;52.026;8.540;2024-01-15T03:55:09;27.33;;;13.20;;
49366;SDS011;35245;52.026;8.540;2024-01-15T03:57:37;26.50;;;12.27;;
49366;SDS011;35245;52.026;8.540;2024-01-15T04:00:04;28.33;;;12.60;;
49366;SDS011;35245;52.026;8.540;2024-01-15T04:02:33;32.88;;;13.60;;
49366;SDS011;35245;52.026;8.540;2024-01-15T04:05:00;28.33;;;12.27;;
49366;SDS011;35245;52.026;8.540;2024-01-15T04:07:29;28.98;;;11.98;;
49366;SDS011;35245;52.026;8.540;2024-01-15T04:09:56;24.70;;;12.07;;
49366;SDS011;35245;52.026;8.540;2024-01-15T04:12:24;24.90;;;11.23;;
49366;SDS011;35245;52.026;8.540;2024-01-15T04:14:51;28.23;;;11.20;;
49366;SDS011;35245;52.026;8.540;2024-01-15T04:17:18;28.52;;;11.75;;
49366;SDS011;35245;52.026;8.540;2024-01-15T04:19:46;30.40;;;11.85;;
49366;SDS011;35245;52.026;8.540;2024-01-15T04:22:14;25.83;;;10.90;;
49366;SDS011;35245;52.026;8.540;2024-01-15T04:24:42;30.40;;;12.45;;
49366;SDS011;35245;52.026;8.540;2024-01-15T04:27:09;24.35;;;10.90;;
49366;SDS011;35245;52.026;8.540;2024-01-15T04:29:37;32.10;;;11.52;;
49366;SDS011;35245;52.026;8.540;2024-01-15T04:32:05;28.60;;;11.30;;
49366;SDS011;35245;52.026;8.540;2024-01-15T04:34:32;27.98;;;12.32;;
49366;SDS011;35245;52.026;8.540;2024-01-15T04:36:59;28.70;;;10.75;;
49366;SDS011;35245;52.026;8.540;2024-01-15T04:39:26;21.98;;;10.52;;
49366;SDS011;35245;52.026;8.540;2024-01-15T04:41:54;23.65;;;10.60;;
49366;SDS011;35245;52.026;8.540;2024-01-15T04:44:22;25.63;;;9.95;;
49366;SDS011;35245;52.026;8.540;2024-01-15T04:46:49;29.42;;;9.63;;
49366;SDS011;35245;52.026;8.540;2024-01-15T04:49:16;29.05;;;10.05;;
49366;SDS011;35245;52.026;8.540;2024-01-15T04:51:43;29.05;;;10.77;;
49366;SDS011;35245;52.026;8.540;2024-01-15T04:54:11;23.73;;;10.50;;
49366;SDS011;35245;52.026;8.540;2024-01-15T04:56:38;24.48;;;10.38;;
49366;SDS011;35245;52.026;8.540;2024-01-15T04:59:06;27.88;;;11.60;;
49366;SDS011;35245;52.026;8.540;2024-01-15T05:01:33;26.40;;;10.45;;
49366;SDS011;35245;52.026;8.540;2024-01-15T05:04:01;25.95;;;11.48;;
49366;SDS011;35245;52.026;8.540;2024-01-15T05:06:29;27.88;;;11.65;;
49366;SDS011;35245;52.026;8.540;2024-01-15T05:08:56;21.85;;;11.88;;
49366;SDS011;35245;52.026;8.540;2024-01-15T05:11:24;26.52;;;12.25;;
49366;SDS011;35245;52.026;8.540;2024-01-15T05:13:52;25.35;;;11.20;;
49366;SDS011;35245;52.026;8.540;2024-01-15T05:16:21;21.60;;;10.38;;
49366;SDS011;35245;52.026;8.540;2024-01-15T05:18:48;23.77;;;11.07;;
49366;SDS011;35245;52.026;8.540;2024-01-15T05:21:15;31.42;;;12.10;;
49366;SDS011;35245;52.026;8.540;2024-01-15T05:23:42;32.45;;;12.38;;
49366;SDS011;35245;52.026;8.540;2024-01-15T05:26:09;25.05;;;11.95;;
49366;SDS011;35245;52.026;8.540;2024-01-15T05:28:36;26.80;;;10.63;;
49366;SDS011;35245;52.026;8.540;2024-01-15T05:31:04;23.83;;;11.48;;
49366;SDS011;35245;52.026;8.540;2024-01-15T05:33:33;21.73;;;10.50;;
49366;SDS011;35245;52.026;8.540;2024-01-15T05:36:00;24.05;;;11.65;;
49366;SDS011;35245;52.026;8.540;2024-01-15T05:38:27;24.50;;;12.48;;
49366;SDS011;35245;52.026;8.540;2024-01-15T05:40:54;27.23;;;11.05;;
49366;SDS011;35245;52.026;8.540;2024-01-15T05:43:22;24.83;;;11.77;;
49366;SDS011;35245;52.026;8.540;2024-01-15T05:45:49;25.02;;;10.70;;
49366;SDS011;35245;52.026;8.540;2024-01-15T05:48:16;22.35;;;11.15;;
49366;SDS011;35245;52.026;8.540;2024-01-15T05:50:45;19.42;;;10.60;;
49366;SDS011;35245;52.026;8.540;2024-01-15T05:53:12;20.30;;;9.63;;
49366;SDS011;35245;52.026;8.540;2024-01-15T05:55:39;18.58;;;9.38;;
49366;SDS011;35245;52.026;8.540;2024-01-15T05:58:07;19.45;;;8.68;;
49366;SDS011;35245;52.026;8.540;2024-01-15T06:00:34;32.17;;;10.10;;
49366;SDS011;35245;52.026;8.540;2024-01-15T06:03:03;19.88;;;10.07;;
49366;SDS011;35245;52.026;8.540;2024-01-15T06:05:30;23.70;;;10.40;;
49366;SDS011;35245;52.026;8.540;2024-01-15T06:07:59;22.42;;;10.15;;
49366;SDS011;35245;52.026;8.540;2024-01-15T06:10:26;19.77;;;10.55;;
49366;SDS011;35245;52.026;8.540;2024-01-15T06:12:53;22.85;;;9.20;;
49366;SDS011;35245;52.026;8.540;2024-01-15T06:15:20;21.77;;;9.75;;
49366;SDS011;35245;52.026;8.540;2024-01-15T06:17:47;19.83;;;9.43;;
49366;SDS011;35245;52.026;8.540;2024-01-15T06:20:14;16.52;;;9.95;;
49366;SDS011;35245;52.026;8.540;2024-01-15T06:22:43;20.73;;;10.60;;
49366;SDS011;35245;52.026;8.540;2024-01-15T06:25:11;19.35;;;10.85;;
49366;SDS011;35245;52.026;8.540;2024-01-15T06:27:38;27.08;;;11.55;;
49366;SDS011;35245;52.026;8.540;2024-01-15T06:30:06;20.33;;;10.98;;
49366;SDS011;35245;52.026;8.540;2024-01-15T06:32:34;27.63;;;13.02;;
49366;SDS011;35245;52.026;8.540;2024-01-15T06:35:01;30.63;;;12.23;;
49366;SDS011;35245;52.026;8.540;2024-01-15T06:37:29;26.27;;;12.35;;
49366;SDS011;35245;52.026;8.540;2024-01-15T06:39:57;20.23;;;12.02;;
49366;SDS011;35245;52.026;8.540;2024-01-15T06:42:26;21.83;;;11.85;;
49366;SDS011;35245;52.026;8.540;2024-01-15T06:44:53;21.90;;;11.65;;
49366;SDS011;35245;52.026;8.540;2024-01-15T06:47:20;22.40;;;12.10;;
49366;SDS011;35245;52.026;8.540;2024-01-15T06:49:47;25.45;;;11.85;;
49366;SDS011;35245;52.026;8.540;2024-01-15T06:52:15;24.80;;;11.43;;
49366;SDS011;35245;52.026;8.540;2024-01-15T06:54:42;23.38;;;12.65;;
49366;SDS011;35245;52.026;8.540;2024-01-15T06:57:10;24.95;;;11.88;;
49366;SDS011;35245;52.026;8.540;2024-01-15T06:59:38;23.40;;;11.82;;
49366;SDS011;35245;52.026;8.540;2024-01-15T07:02:06;25.17;;;10.85;;
49366;SDS011;35245;52.026;8.540;2024-01-15T07:04:33;23.60;;;11.68;;
49366;SDS011;35245;52.026;8.540;2024-01-15T07:07:00;23.40;;;12.88;;
49366;SDS011;35245;52.026;8.540;2024-01-15T07:09:27;26.50;;;12.75;;
49366;SDS011;35245;52.026;8.540;2024-01-15T07:11:54;30.35;;;13.98;;
49366;SDS011;35245;52.026;8.540;2024-01-15T07:14:23;24.83;;;14.40;;
49366;SDS011;35245;52.026;8.540;2024-01-15T07:16:51;27.85;;;13.27;;
49366;SDS011;35245;52.026;8.540;2024-01-15T07:19:19;25.33;;;12.95;;
49366;SDS011;35245;52.026;8.540;2024-01-15T07:21:46;25.40;;;12.48;;
49366;SDS011;35245;52.026;8.540;2024-01-15T07:24:13;25.30;;;12.30;;
49366;SDS011;35245;52.026;8.540;2024-01-15T07:26:40;25.00;;;12.98;;
49366;SDS011;35245;52.026;8.540;2024-01-15T07:29:07;20.60;;;12.10;;
49366;SDS011;35245;52.026;8.540;2024-01-15T07:31:34;25.48;;;12.85;;
49366;SDS011;35245;52.026;8.540;2024-01-15T07:34:03;25.10;;;11.90;;
49366;SDS011;35245;52.026;8.540;2024-01-15T07:36:30;26.08;;;11.05;;
49366;SDS011;35245;52.026;8.540;2024-01-15T07:38:57;22.38;;;11.18;;
49366;SDS011;35245;52.026;8.540;2024-01-15T07:41:24;33.00;;;12.07;;
49366;SDS011;35245;52.026;8.540;2024-01-15T07:43:51;22.13;;;12.55;;
49366;SDS011;35245;52.026;8.540;2024-01-15T07:46:18;20.92;;;11.52;;
49366;SDS011;35245;52.026;8.540;2024-01-15T07:48:45;24.95;;;11.95;;
49366;SDS011;35245;52.026;8.540;2024-01-15T07:51:14;23.30;;;11.70;;
49366;SDS011;35245;52.026;8.540;2024-01-15T07:53:41;25.67;;;12.32;;
49366;SDS011;35245;52.026;8.540;2024-01-15T07:56:08;25.50;;;13.05;;
49366;SDS011;35245;52.026;8.540;2024-01-15T07:58:35;20.95;;;10.65;;
49366;SDS011;35245;52.026;8.540;2024-01-15T08:01:02;17.90;;;10.23;;
49366;SDS011;35245;52.026;8.540;2024-01-15T08:03:31;19.25;;;11.20;;
49366;SDS011;35245;52.026;8.540;2024-01-15T08:05:58;23.30;;;10.50;;
49366;SDS011;35245;52.026;8.540;2024-01-15T08:08:27;20.83;;;11.02;;
49366;SDS011;35245;52.026;8.540;2024-01-15T08:10:54;24.80;;;9.95;;
49366;SDS011;35245;52.026;8.540;2024-01-15T08:13:22;20.17;;;10.32;;
49366;SDS011;35245;52.026;8.540;2024-01-15T08:15:49;16.70;;;9.90;;
49366;SDS011;35245;52.026;8.540;2024-01-15T08:18:16;18.60;;;10.40;;
49366;SDS011;35245;52.026;8.540;2024-01-15T08:20:43;20.13;;;9.38;;
49366;SDS011;35245;52.026;8.540;2024-01-15T08:23:10;17.48;;;9.98;;
49366;SDS011;35245;52.026;8.540;2024-01-15T08:25:39;21.17;;;10.80;;
49366;SDS011;35245;52.026;8.540;2024-01-15T08:28:06;17.35;;;11.10;;
49366;SDS011;35245;52.026;8.540;2024-01-15T08:30:33;18.98;;;11.35;;
49366;SDS011;35245;52.026;8.540;2024-01-15T08:33:00;16.23;;;9.00;;
49366;SDS011;35245;52.026;8.540;2024-01-15T08:35:27;17.98;;;9.40;;
49366;SDS011;35245;52.026;8.540;2024-01-15T08:37:55;19.00;;;8.63;;
49366;SDS011;35245;52.026;8.540;2024-01-15T08:40:23;12.18;;;8.10;;
49366;SDS011;35245;52.026;8.540;2024-01-15T08:42:52;13.88;;;9.13;;
49366;SDS011;35245;52.026;8.540;2024-01-15T08:45:19;18.67;;;8.10;;
49366;SDS011;35245;52.026;8.540;2024-01-15T08:47:46;15.35;;;8.10;;
49366;SDS011;35245;52.026;8.540;2024-01-15T08:50:14;14.77;;;8.88;;
49366;SDS011;35245;52.026;8.540;2024-01-15T08:52:41;13.77;;;7.93;;
49366;SDS011;35245;52.026;8.540;2024-01-15T08:55:08;12.75;;;7.85;;
49366;SDS011;35245;52.026;8.540;2024-01-15T08:57:35;12.25;;;8.20;;
49366;SDS011;35245;52.026;8.540;2024-01-15T09:00:04;13.25;;;7.80;;
49366;SDS011;35245;52.026;8.540;2024-01-15T09:02:34;17.00;;;8.63;;
49366;SDS011;35245;52.026;8.540;2024-01-15T09:05:02;12.82;;;8.30;;
49366;SDS011;35245;52.026;8.540;2024-01-15T09:07:30;13.77;;;8.80;;
49366;SDS011;35245;52.026;8.540;2024-01-15T09:09:57;19.42;;;9.77;;
49366;SDS011;35245;52.026;8.540;2024-01-15T09:12:24;15.73;;;9.40;;
49366;SDS011;35245;52.026;8.540;2024-01-15T09:14:52;15.43;;;9.40;;
49366;SDS011;35245;52.026;8.540;2024-01-15T09:17:21;13.95;;;9.02;;
49366;SDS011;35245;52.026;8.540;2024-01-15T09:19:49;16.55;;;9.77;;
49366;SDS011;35245;52.026;8.540;2024-01-15T09:22:16;15.20;;;10.10;;
49366;SDS011;35245;52.026;8.540;2024-01-15T09:24:43;21.55;;;11.10;;
49366;SDS011;35245;52.026;8.540;2024-01-15T09:27:11;18.30;;;9.43;;
49366;SDS011;35245;52.026;8.540;2024-01-15T09:29:38;20.33;;;10.05;;
49366;SDS011;35245;52.026;8.540;2024-01-15T09:32:08;16.85;;;9.77;;
49366;SDS011;35245;52.026;8.540;2024-01-15T09:34:36;20.73;;;9.95;;
49366;SDS011;35245;52.026;8.540;2024-01-15T09:37:03;16.77;;;10.15;;
49366;SDS011;35245;52.026;8.540;2024-01-15T09:39:31;21.23;;;10.90;;
49366;SDS011;35245;52.026;8.540;2024-01-15T09:41:58;21.48;;;11.32;;
49366;SDS011;35245;52.026;8.540;2024-01-15T09:44:26;17.92;;;10.38;;
49366;SDS011;35245;52.026;8.540;2024-01-15T09:46:54;20.23;;;10.35;;
49366;SDS011;35245;52.026;8.540;2024-01-15T09:49:23;24.20;;;9.90;;
49366;SDS011;35245;52.026;8.540;2024-01-15T09:51:52;28.60;;;10.55;;
49366;SDS011;35245;52.026;8.540;2024-01-15T09:54:20;18.70;;;8.82;;
49366;SDS011;35245;52.026;8.540;2024-01-15T09:56:48;24.88;;;11.45;;
49366;SDS011;35245;52.026;8.540;2024-01-15T09:59:16;24.10;;;11.68;;
49366;SDS011;35245;52.026;8.540;2024-01-15T10:01:45;22.15;;;10.73;;
49366;SDS011;35245;52.026;8.540;2024-01-15T10:04:13;14.15;;;8.73;;
49366;SDS011;35245;52.026;8.540;2024-01-15T10:06:41;14.75;;;8.30;;
49366;SDS011;35245;52.026;8.540;2024-01-15T10:09:14;21.80;;;9.82;;
49366;SDS011;35245;52.026;8.540;2024-01-15T10:11:42;20.58;;;10.30;;
49366;SDS011;35245;52.026;8.540;2024-01-15T10:14:10;21.30;;;10.15;;
49366;SDS011;35245;52.026;8.540;2024-01-15T10:16:38;21.08;;;11.25;;
49366;SDS011;35245;52.026;8.540;2024-01-15T10:19:05;21.55;;;8.70;;
49366;SDS011;35245;52.026;8.540;2024-01-15T10:21:33;25.60;;;12.52;;
49366;SDS011;35245;52.026;8.540;2024-01-15T10:24:01;24.23;;;10.52;;
49366;SDS011;35245;52.026;8.540;2024-01-15T10:26:32;24.10;;;11.38;;
49366;SDS011;35245;52.026;8.540;2024-01-15T10:28:59;14.20;;;8.18;;
49366;SDS011;35245;52.026;8.540;2024-01-15T10:31:26;27.17;;;10.40;;
49366;SDS011;35245;52.026;8.540;2024-01-15T10:33:53;15.68;;;8.85;;
49366;SDS011;35245;52.026;8.540;2024-01-15T10:36:22;26.95;;;13.70;;
49366;SDS011;35245;52.026;8.540;2024-01-15T10:38:50;15.80;;;7.90;;
49366;SDS011;35245;52.026;8.540;2024-01-15T10:41:17;17.13;;;7.00;;
49366;SDS011;35245;52.026;8.540;2024-01-15T10:43:46;17.23;;;7.10;;
49366;SDS011;35245;52.026;8.540;2024-01-15T10:46:13;19.48;;;6.93;;
49366;SDS011;35245;52.026;8.540;2024-01-15T10:48:40;20.33;;;7.07;;
49366;SDS011;35245;52.026;8.540;2024-01-15T10:51:07;15.23;;;7.75;;
49366;SDS011;35245;52.026;8.540;2024-01-15T10:53:37;14.15;;;6.90;;
49366;SDS011;35245;52.026;8.540;2024-01-15T10:56:06;17.33;;;8.57;;
49366;SDS011;35245;52.026;8.540;2024-01-15T10:58:36;20.85;;;9.60;;
49366;SDS011;35245;52.026;8.540;2024-01-15T11:01:06;16.42;;;7.35;;
49366;SDS011;35245;52.026;8.540;2024-01-15T11:03:34;16.75;;;6.65;;
49366;SDS011;35245;52.026;8.540;2024-01-15T11:06:02;13.88;;;6.72;;
49366;SDS011;35245;52.026;8.540;2024-01-15T11:08:42;18.92;;;7.38;;
49366;SDS011;35245;52.026;8.540;2024-01-15T11:11:09;14.35;;;6.13;;
49366;SDS011;35245;52.026;8.540;2024-01-15T11:13:40;17.90;;;8.05;;
49366;SDS011;35245;52.026;8.540;2024-01-15T11:16:11;18.15;;;6.22;;
49366;SDS011;35245;52.026;8.540;2024-01-15T11:18:40;13.70;;;5.68;;
49366;SDS011;35245;52.026;8.540;2024-01-15T11:21:24;17.20;;;5.97;;
49366;SDS011;35245;52.026;8.540;2024-01-15T11:23:53;14.05;;;5.72;;
49366;SDS011;35245;52.026;8.540;2024-01-15T11:26:33;18.02;;;6.22;;
49366;SDS011;35245;52.026;8.540;2024-01-15T11:29:03;18.58;;;5.82;;
49366;SDS011;35245;52.026;8.540;2024-01-15T11:37:24;13.68;;;5.53;;
49366;SDS011;35245;52.026;8.540;2024-01-15T11:39:53;14.73;;;6.50;;
49366;SDS011;35245;52.026;8.540;2024-01-15T11:42:21;14.27;;;6.38;;
49366;SDS011;35245;52.026;8.540;2024-01-15T11:44:49;19.25;;;7.75;;
49366;SDS011;35245;52.026;8.540;2024-01-15T11:47:36;24.20;;;8.40;;
49366;SDS011;35245;52.026;8.540;2024-01-15T11:50:35;20.08;;;7.22;;
49366;SDS011;35245;52.026;8.540;2024-01-15T11:53:06;14.43;;;6.50;;
49366;SDS011;35245;52.026;8.540;2024-01-15T11:55:45;20.60;;;9.20;;
49366;SDS011;35245;52.026;8.540;2024-01-15T11:58:13;15.30;;;5.95;;
49366;SDS011;35245;52.026;8.540;2024-01-15T12:00:42;21.90;;;8.82;;
49366;SDS011;35245;52.026;8.540;2024-01-15T12:03:12;14.18;;;6.18;;
49366;SDS011;35245;52.026;8.540;2024-01-15T12:05:40;17.30;;;8.73;;
49366;SDS011;35245;52.026;8.540;2024-01-15T12:08:08;14.82;;;6.18;;
49366;SDS011;35245;52.026;8.540;2024-01-15T12:10:36;13.93;;;6.30;;
49366;SDS011;35245;52.026;8.540;2024-01-15T12:13:06;16.00;;;5.80;;
49366;SDS011;35245;52.026;8.540;2024-01-15T12:15:38;12.57;;;5.32;;
49366;SDS011;35245;52.026;8.540;2024-01-15T12:18:07;11.85;;;6.05;;
49366;SDS011;35245;52.026;8.540;2024-01-15T12:20:37;10.18;;;5.70;;
49366;SDS011;35245;52.026;8.540;2024-01-15T12:23:05;13.32;;;5.22;;
49366;SDS011;35245;52.026;8.540;2024-01-15T12:25:33;10.57;;;5.82;;
49366;SDS011;35245;52.026;8.540;2024-01-15T12:28:01;8.90;;;4.85;;
49366;SDS011;35245;52.026;8.540;2024-01-15T12:30:29;12.32;;;4.50;;
49366;SDS011;35245;52.026;8.540;2024-01-15T12:33:00;11.13;;;4.70;;
49366;SDS011;35245;52.026;8.540;2024-01-15T12:35:29;10.32;;;4.13;;
49366;SDS011;35245;52.026;8.540;2024-01-15T12:37:59;12.35;;;4.93;;
49366;SDS011;35245;52.026;8.540;2024-01-15T12:40:27;17.02;;;5.65;;
49366;SDS011;35245;52.026;8.540;2024-01-15T12:42:55;11.00;;;4.70;;
49366;SDS011;35245;52.026;8.540;2024-01-15T12:45:22;14.70;;;4.82;;
49366;SDS011;35245;52.026;8.540;2024-01-15T12:47:50;11.80;;;4.82;;
49366;SDS011;35245;52.026;8.540;2024-01-15T12:50:18;9.43;;;4.60;;
49366;SDS011;35245;52.026;8.540;2024-01-15T12:52:46;11.80;;;4.85;;
49366;SDS011;35245;52.026;8.540;2024-01-15T12:55:14;11.52;;;4.30;;
49366;SDS011;35245;52.026;8.540;2024-01-15T12:57:41;15.60;;;4.90;;
49366;SDS011;35245;52.026;8.540;2024-01-15T13:00:10;17.55;;;5.88;;
49366;SDS011;35245;52.026;8.540;2024-01-15T13:02:39;10.93;;;4.38;;
49366;SDS011;35245;52.026;8.540;2024-01-15T13:05:07;11.20;;;4.30;;
49366;SDS011;35245;52.026;8.540;2024-01-15T13:07:36;12.98;;;4.60;;
49366;SDS011;35245;52.026;8.540;2024-01-15T13:10:03;9.15;;;4.32;;
49366;SDS011;35245;52.026;8.540;2024-01-15T13:12:32;12.30;;;4.15;;
49366;SDS011;35245;52.026;8.540;2024-01-15T13:15:00;11.55;;;4.15;;
49366;SDS011;35245;52.026;8.540;2024-01-15T13:17:28;11.18;;;3.75;;
49366;SDS011;35245;52.026;8.540;2024-01-15T13:19:55;11.75;;;4.43;;
49366;SDS011;35245;52.026;8.540;2024-01-15T13:22:23;15.30;;;4.50;;
49366;SDS011;35245;52.026;8.540;2024-01-15T13:24:54;18.05;;;6.45;;
49366;SDS011;35245;52.026;8.540;2024-01-15T13:27:21;15.07;;;7.07;;
49366;SDS011;35245;52.026;8.540;2024-01-15T13:29:50;10.43;;;4.32;;
49366;SDS011;35245;52.026;8.540;2024-01-15T13:32:19;16.52;;;5.05;;
49366;SDS011;35245;52.026;8.540;2024-01-15T13:34:50;17.90;;;6.22;;
49366;SDS011;35245;52.026;8.540;2024-01-15T13:37:18;15.88;;;7.05;;
49366;SDS011;35245;52.026;8.540;2024-01-15T13:39:45;16.27;;;6.13;;
49366;SDS011;35245;52.026;8.540;2024-01-15T13:42:12;13.40;;;4.90;;
49366;SDS011;35245;52.026;8.540;2024-01-15T13:44:40;20.90;;;7.47;;
49366;SDS011;35245;52.026;8.540;2024-01-15T13:47:12;10.80;;;4.90;;
49366;SDS011;35245;52.026;8.540;2024-01-15T13:49:39;13.75;;;5.25;;
49366;SDS011;35245;52.026;8.540;2024-01-15T13:52:06;8.40;;;3.58;;
49366;SDS011;35245;52.026;8.540;2024-01-15T13:54:33;12.27;;;4.97;;
49366;SDS011;35245;52.026;8.540;2024-01-15T13:57:00;11.02;;;4.03;;
49366;SDS011;35245;52.026;8.540;2024-01-15T13:59:27;13.88;;;4.68;;
49366;SDS011;35245;52.026;8.540;2024-01-15T14:01:54;11.95;;;5.18;;
49366;SDS011;35245;52.026;8.540;2024-01-15T14:04:24;15.05;;;5.90;;
49366;SDS011;35245;52.026;8.540;2024-01-15T14:06:51;11.05;;;4.75;;
49366;SDS011;35245;52.026;8.540;2024-01-15T14:09:19;14.40;;;6.07;;
49366;SDS011;35245;52.026;8.540;2024-01-15T14:11:46;13.82;;;5.28;;
49366;SDS011;35245;52.026;8.540;2024-01-15T14:14:14;10.02;;;4.60;;
49366;SDS011;35245;52.026;8.540;2024-01-15T14:16:43;12.80;;;6.40;;
49366;SDS011;35245;52.026;8.540;2024-01-15T14:19:10;10.35;;;4.93;;
49366;SDS011;35245;52.026;8.540;2024-01-15T14:21:38;8.75;;;4.47;;
49366;SDS011;35245;52.026;8.540;2024-01-15T14:24:05;13.45;;;5.03;;
49366;SDS011;35245;52.026;8.540;2024-01-15T14:26:33;8.68;;;4.43;;
49366;SDS011;35245;52.026;8.540;2024-01-15T14:29:04;11.02;;;5.32;;
49366;SDS011;35245;52.026;8.540;2024-01-15T14:31:31;11.80;;;4.63;;
49366;SDS011;35245;52.026;8.540;2024-01-15T14:33:59;12.60;;;5.00;;
49366;SDS011;35245;52.026;8.540;2024-01-15T14:36:28;8.98;;;5.40;;